Station: Channel Point

  Atmospheric Gas Attenuation - ITU Rec 676-11   --------------- db/100km ---------------
Date Time Temp RH % AH g/m3 Dew Point Wind Direction Speed kph Gust kph Barometer mB Rainfall Since 9am 24GHz 47GHz 76GHz 122GHz 134GHz 241GHz
05 09:00 24 96 20.89 23.3 0 1012.2 0 45.1 44.2 87.5 231.5 258.0 896.0
04 09:00 22.5 87 17.38 20.2 4 1012.8 0 37.8 38.1 72.0 190.3 207.0 718.5
03 09:00 18.5 100 15.82 18.5 6 1014.2 0 34.8 37.0 68.4 180.7 193.8 672.0
02 09:00 19 95 15.48 18.2 0 1014.8 0 34.0 36.2 66.4 175.3 187.3 649.6
01 09:00 19 85 13.85 16.5 0 1015.4 0 30.5 33.2 58.9 155.5 163.0 564.8
31 09:00 19 58 9.45 10.7 0 1015.7 0 21.1 25.8 40.6 106.7 102.9 354.9
30 09:00 17 55 7.96 8.1 22 1016.4 0 18.1 24.1 35.9 94.1 86.7 297.8
28 09:00 19 85 13.85 16.5 19 1014.2 0 30.5 33.2 58.9 155.4 162.8 564.3
27 09:00 19.7 59 10.02 11.5 17 1015.3 0 22.3 26.5 42.5 111.6 109.2 377.0
26 09:00 21 60 10.99 13.1 19 1015.4 0 24.3 27.7 45.6 119.9 119.8 414.3
25 09:00 20.5 68 12.1 14.5 13 1014.8 0 26.7 29.6 50.3 132.6 135.3 468.5
24 09:00 20 68 11.75 13.9 9 1014 0 26.0 29.2 49.2 129.5 131.4 454.6
23 09:00 19 67 10.92 12.8 9 1014.7 0 24.3 28.1 46.4 122.1 121.9 421.5
22 09:00 20 63 10.89 12.9 9 1014.9 0 24.1 27.8 45.7 120.3 120.0 414.9
21 09:00 21 95 17.4 20.1 0 1015.1 0 37.9 39.0 73.7 194.7 211.9 735.2
20 09:00 21.3 97 18.08 20.8 0 1013.9 0 39.4 40.1 76.6 202.5 221.6 769.0
19 09:00 23.5 83 17.55 20.4 0 1013.7 0 38.0 38.0 71.9 190.1 206.9 718.5
18 09:00 19 95 15.48 18.2 0 1013.4 0 34.0 36.1 66.3 175.1 187.2 649.0
17 09:00 20 51 8.81 9.7 19 1013.4 0 19.7 24.5 37.6 98.7 93.5 322.1
16 09:00 20.5 60 10.68 12.5 13 1014.2 0 23.7 27.3 44.6 117.2 116.4 402.5
15 09:00 18.1 45 6.95 6.1 19 1014.4 0 15.9 22.3 31.7 82.9 73.3 250.9
14 09:00 18.6 44 7 6.3 19 1016.1 0 16.0 22.3 31.8 83.0 73.5 251.8
13 09:00 21.8 44 8.44 9 19 1015.9 0 18.9 23.6 35.6 93.2 87.2 300.2
12 09:00 24 63 13.71 16.7 0 1013.9 0 29.8 31.0 54.6 144.1 150.6 522.1
11 09:00 23.1 82 16.95 19.8 0 1014.3 0 36.8 37.1 69.5 183.7 199.0 690.9
10 09:00 21 82 15.02 17.8 0 1014.2 0 32.8 34.5 62.5 165.1 175.5 608.7
09 09:00 20 51 8.81 9.7 4 1014.7 0 19.7 24.5 37.7 98.8 93.6 322.4
08 09:00 19 54 8.8 9.5 4 1015.1 0 19.8 24.8 38.1 100.0 94.7 326.2
07 09:00 19.7 49 8.32 8.8 28 1016.8 0 18.7 24.0 36.1 94.6 88.1 303.2
06 09:00 21 52 9.52 11 28 1016.6 0 21.2 25.4 39.9 104.9 101.3 349.4
30 09:00 21 92 16.85 19.7 4 1014.2 0 36.8 37.9 71.0 187.6 203.1 704.9
28 09:00 21 60 10.99 13.1 9 1014.7 0 24.3 27.6 45.5 119.8 119.8 414.1
26 09:00 19 50 8.15 8.4 19 1014.1 0 18.4 23.8 35.7 93.5 86.6 298.0
25 09:00 20 59 10.2 11.7 9 1014.6 0 22.7 26.7 43.0 113.0 111.0 383.4
23 09:00 20 55 9.5 10.8 9 1015.3 0 21.2 25.6 40.3 105.8 102.2 352.5
22 09:00 21 60 10.99 13.1 0 1014.3 0 24.3 27.6 45.5 119.8 119.7 414.0
19 09:00 22 78 15.14 18 0 1016.4 0 33.0 34.4 62.4 164.7 175.2 607.9
18 09:00 22.2 68 13.35 16.1 0 1016.6 0 29.2 31.2 54.5 143.7 149.5 518.0
17 09:00 21 45 8.24 8.6 9 1016.4 0 18.5 23.5 35.2 92.3 85.7 295.0
16 09:00 22.8 68 13.82 16.6 9 1014.8 0 30.2 31.7 56.0 147.6 154.6 535.9
14 09:00 23 95 19.52 22.2 9 1015.2 0 42.3 42.1 82.0 216.8 239.5 831.8
13 09:00 24 96 20.89 23.3 0 1013.4 0 45.1 44.3 87.5 231.7 258.2 896.7
10 09:00 22.4 66 13.11 15.9 9 1015.6 0 28.7 30.7 53.3 140.6 145.7 504.8
09 09:00 23 62 12.74 15.5 9 1015.8 0 27.9 29.9 51.4 135.5 139.6 483.7
08 09:00 23 91 18.7 21.5 0 1013 0 40.5 40.4 77.8 205.8 226.1 785.1
07 09:00 21.7 72 13.73 16.4 0 1013.1 0 30.0 31.9 56.3 148.5 155.3 538.5
06 09:00 19 58 9.45 10.7 4 1013.5 0 21.1 25.8 40.5 106.5 102.7 354.3
05 09:00 19 46 7.5 7.1 28 1016.3 0 17.0 22.9 33.4 87.4 79.0 271.2
04 09:00 19 41 6.68 5.7 19 1017.5 0 15.3 21.8 30.5 79.7 69.5 237.9
03 09:00 21 48 8.79 9.8 28 1018.1 0 19.6 24.4 37.3 97.8 92.4 318.5
02 09:00 25 96 22.1 24.3 0 1016 0 47.6 46.3 92.7 245.3 275.0 955.4
01 09:00 24.5 96 21.48 23.8 0 1015.7 0 46.3 45.3 90.1 238.4 266.5 925.8
31 09:00 23.1 95 19.64 22.2 0 1016.4 0 42.5 42.4 82.5 218.3 241.4 838.1
30 09:00 23 93 19.11 21.8 0 1016 0 41.4 41.4 80.0 211.6 233.1 809.4
29 09:00 22.5 78 15.58 18.5 0 1016.3 0 33.9 35.0 63.9 168.8 180.5 626.2
28 09:00 24 83 18.06 20.9 0 1016 0 39.0 38.9 73.9 195.5 213.7 741.9
27 09:00 24 79 17.19 20.1 17 1015.1 0 37.2 37.2 69.8 184.6 200.4 695.6
26 09:00 21 77 14.1 16.9 0 1016.1 0 30.9 32.9 58.6 154.5 162.4 563.0
25 09:00 19 54 8.8 9.5 9 1015.4 0 19.8 24.8 38.1 100.1 94.7 326.2
24 09:00 18.6 44 7 6.3 28 1017.4 0 16.0 22.3 31.8 83.1 73.6 252.1
23 09:00 17 75 10.85 12.5 65 1016.8 0 24.2 28.8 47.4 124.8 124.4 429.8
22 09:00 20.5 90 16.01 18.9 19 1014.4 1 35.0 36.5 67.5 178.4 191.6 664.6
21 09:00 25 53 12.2 15 46 1013 0 26.6 28.2 47.8 126.1 128.8 446.2
20 09:00 25.2 63 14.67 17.7 0 1012.7 0 31.8 32.2 57.7 152.3 161.1 559.0
19 09:00 25 72 16.57 19.6 9 1012 0 35.8 35.5 66.0 174.4 188.2 653.5
18 09:00 23 87 17.88 20.7 19 1011.8 0 38.8 38.8 73.8 195.2 213.1 739.9
17 09:00 26 88 21.42 23.8 9 1011.7 0 46.0 44.2 87.7 232.2 259.5 901.6
16 09:00 24.5 87 19.47 22.3 9 1012.5 0 42.0 41.2 79.9 211.4 233.5 811.1
14 09:00 23 83 17.06 19.9 19 1014.5 0 37.0 37.4 70.1 185.4 201.0 697.7
13 09:00 24.1 80 17.5 20.4 9 1014.6 0 37.9 37.7 71.1 188.1 204.7 710.7
12 09:00 23.8 76 16.35 19.4 19 1014.5 0 35.4 35.7 66.2 174.9 188.3 653.8
11 09:00 25 68 15.65 18.7 19 1014.4 0 33.9 34.0 62.1 164.0 175.4 608.8
10 09:00 25 75 17.26 20.4 0 1014 0 37.3 36.8 69.2 182.9 198.6 689.6
09 15:40 1013.1
08 09:00 23.5 91 19.24 22 0 1013.7 0 41.6 41.3 79.9 211.5 233.2 809.9
07 09:00 22.5 67 13.38 16.2 4 1014.2 0 29.2 31.0 54.3 143.2 149.0 516.5
06 09:00 23.5 55 11.63 14.1 9 1014 0 25.5 27.8 46.6 122.6 124.0 429.4
05 09:00 23.5 48 10.15 12 19 1013.8 0 22.4 25.6 40.9 107.6 105.5 364.6
04 09:00 23 45 9.25 10.7 19 1014.5 0 20.5 24.4 37.9 99.5 95.3 328.9
03 09:00 22.5 40 7.99 8.3 28 1013.6 0 17.9 22.7 33.6 88.0 81.1 278.8
02 09:00 22 43 8.34 8.8 37 1012.6 0 18.7 23.2 35.0 91.7 85.6 294.5
01 09:00 28 81 22.03 24.4 9 1012.2 0 47.1 44.3 88.4 234.0 262.3 911.6
30 09:00 29 92 26.43 27.6 0 1011.6 0 56.3 52.7 109.5 290.0 331.2 1150.9
29 09:00 27 96 24.71 26.3 9 1011.6 0 52.9 50.3 103.3 273.5 310.4 1078.4
25 09:00 29.5 77 22.73 25.2 0 1012.2 0 48.3 44.9 90.0 238.4 268.1 931.8
24 09:00 28 81 22.03 24.4 0 1012.4 0 47.1 44.3 88.4 234.1 262.3 911.7
23 09:00 28.5 90 25.16 26.7 0 1012.9 0 53.6 50.4 103.6 274.4 311.9 1084.0
22 09:00 29.5 86 25.39 27 0 1013 0 54.0 50.3 103.4 273.9 311.6 1082.9
21 09:00 30 81 24.57 26.5 0 1013.2 0 52.2 48.3 98.6 261.1 295.9 1028.7
20 09:00 29.2 87 25.27 26.8 0 1012.9 0 53.7 50.2 103.2 273.4 310.8 1080.2
19 09:00 30 81 24.57 26.5 0 1011.6 0 52.2 48.2 98.4 260.8 295.6 1027.7
18 09:00 29.5 85 25.09 26.7 0 1012.8 0 53.3 49.6 101.8 269.8 306.5 1065.3
17 09:00 28.8 82 23.3 25.5 0 1013.6 0 49.6 46.5 93.8 248.3 280.0 973.2
16 09:00 28.2 85 23.37 25.5 0 1013.4 0 49.9 46.9 94.9 251.2 283.4 984.9
15 09:00 29 85 24.42 26.2 0 1013.5 0 52.0 48.6 99.2 262.6 297.6 1034.2
14 09:00 28.5 85 23.76 25.7 0 1013.3 0 50.6 47.5 96.4 255.4 288.6 1003.1
13 09:00 27 84 21.62 24.1 19 1012.4 0 46.3 44.1 87.6 231.9 259.3 901.1
12 09:00 26.5 84 21.03 23.6 0 1012.1 0 45.1 43.2 85.2 225.7 251.6 874.2
11 09:00 24 83 18.06 20.9 46 1013.6 2 39.1 38.8 73.8 195.1 213.3 740.7
10 09:00 1013.1

Last Refresh: 07-Aug-2020 06:40:55

Most of the information presented on this site is sourced from the Bureau of Meteorology.  Copyright in all material sourced from the Bureau of Meteorology resides with the Commonwealth of Australia.